Time;durP1;ratioP1;P1;durP2;ratioP2;P2;SDS_P1;SDS_P2;PMS_P1;PMS_P2;Temp;Humidity;BMP_temperature;BMP_pressure;BME280_temperature;BME280_humidity;BME280_pressure;Samples;Min_cycle;Max_cycle;Signal;HPM_P1;HPM_P2
2022/03/21 00:00:40;;;;;;;52.27;47.47;;;7.30;99.90;;;;;;5012860;28;20469;-68
2022/03/21 00:03:11;;;;;;;54.93;47.03;;;7.30;99.90;;;;;;5042633;28;20502;-68
2022/03/21 00:05:38;;;;;;;53.03;47.60;;;7.30;99.90;;;;;;5038090;28;20981;-68
2022/03/21 00:08:05;;;;;;;55.10;48.77;;;7.30;99.90;;;;;;5039934;28;20459;-68
2022/03/21 00:10:33;;;;;;;53.50;48.03;;;7.30;99.90;;;;;;5038450;28;20465;-68
2022/03/21 00:13:00;;;;;;;53.80;48.40;;;7.30;99.90;;;;;;5033898;28;20470;-69
2022/03/21 00:15:29;;;;;;;54.40;49.00;;;7.20;99.90;;;;;;5038037;28;20472;-68
2022/03/21 00:17:56;;;;;;;54.43;48.60;;;7.20;99.90;;;;;;5041682;28;20921;-69
2022/03/21 00:20:25;;;;;;;52.43;47.30;;;7.30;99.90;;;;;;5036878;28;20932;-67
2022/03/21 00:22:53;;;;;;;52.40;47.33;;;7.30;99.90;;;;;;5038830;28;20549;-68
2022/03/21 00:25:20;;;;;;;54.07;48.60;;;7.30;99.90;;;;;;5040466;28;20467;-67
2022/03/21 00:27:47;;;;;;;52.47;47.40;;;7.40;99.90;;;;;;5036301;28;20464;-69
2022/03/21 00:30:13;;;;;;;51.50;46.30;;;7.30;99.90;;;;;;5040677;28;20474;-68
2022/03/21 00:32:41;;;;;;;54.30;49.20;;;7.30;99.90;;;;;;5040997;28;20463;-68
2022/03/21 00:35:10;;;;;;;53.63;48.27;;;7.30;99.90;;;;;;5038555;28;20468;-68
2022/03/21 00:37:38;;;;;;;54.87;48.93;;;7.30;99.90;;;;;;5035564;28;20487;-67
2022/03/21 00:40:07;;;;;;;54.17;48.40;;;7.40;99.90;;;;;;5034008;28;20466;-68
2022/03/21 00:42:35;;;;;;;53.80;48.47;;;7.40;99.90;;;;;;5039590;28;20497;-68
2022/03/21 00:45:02;;;;;;;54.50;48.67;;;7.30;99.90;;;;;;5042260;28;20476;-67
2022/03/21 00:47:29;;;;;;;52.93;47.53;;;7.30;99.90;;;;;;5038485;28;20819;-67
2022/03/21 00:49:56;;;;;;;54.63;48.70;;;7.40;99.90;;;;;;5036879;28;20459;-68
2022/03/21 00:52:23;;;;;;;55.50;49.70;;;7.30;99.90;;;;;;5035211;28;20468;-68
2022/03/21 00:54:51;;;;;;;53.47;48.07;;;7.30;99.90;;;;;;5036776;28;20469;-68
2022/03/21 00:57:19;;;;;;;54.87;49.27;;;7.30;99.90;;;;;;5040101;28;20471;-67
2022/03/21 00:59:45;;;;;;;54.40;48.97;;;7.40;99.90;;;;;;5040530;28;20511;-68
2022/03/21 01:02:13;;;;;;;55.23;49.47;;;7.40;99.90;;;;;;5037031;28;20503;-69
2022/03/21 01:04:40;;;;;;;55.63;50.60;;;7.50;99.90;;;;;;5034080;28;20872;-68
2022/03/21 01:07:07;;;;;;;56.17;50.47;;;7.50;99.90;;;;;;5042409;28;20471;-68
2022/03/21 01:09:34;;;;;;;56.53;50.80;;;7.50;99.90;;;;;;5040465;28;20978;-69
2022/03/21 01:12:03;;;;;;;55.70;49.90;;;7.50;99.90;;;;;;5040462;28;20836;-69
2022/03/21 01:14:32;;;;;;;57.47;51.97;;;7.60;99.90;;;;;;5040475;28;21004;-68
2022/03/21 01:16:59;;;;;;;55.13;49.70;;;7.50;99.90;;;;;;5039705;28;20610;-68
2022/03/21 01:19:30;;;;;;;57.10;51.03;;;7.50;99.90;;;;;;5035760;28;20479;-69
2022/03/21 01:21:57;;;;;;;58.63;52.73;;;7.40;99.90;;;;;;5039087;28;20493;-68
2022/03/21 01:24:24;;;;;;;57.10;51.50;;;7.40;99.90;;;;;;5042718;28;20509;-68
2022/03/21 01:26:52;;;;;;;56.23;50.80;;;7.40;99.90;;;;;;5037883;28;20483;-68
2022/03/21 01:29:20;;;;;;;57.87;51.70;;;7.50;99.90;;;;;;5036436;28;20469;-68
2022/03/21 01:31:48;;;;;;;56.33;50.50;;;7.50;99.90;;;;;;5038092;28;20719;-68
2022/03/21 01:34:15;;;;;;;55.67;50.03;;;7.60;99.90;;;;;;5036684;28;20487;-69
2022/03/21 01:36:43;;;;;;;53.90;48.40;;;7.60;99.90;;;;;;5036743;28;20452;-68
2022/03/21 01:39:10;;;;;;;55.33;49.67;;;7.60;99.90;;;;;;5037169;28;20544;-69
2022/03/21 01:41:37;;;;;;;54.07;48.90;;;7.50;99.90;;;;;;5034607;28;20949;-68
2022/03/21 01:44:06;;;;;;;54.50;49.20;;;7.50;99.90;;;;;;5032135;28;20466;-68
2022/03/21 01:46:36;;;;;;;54.33;49.17;;;7.50;99.90;;;;;;5039778;28;20461;-68
2022/03/21 01:49:04;;;;;;;55.40;50.03;;;7.50;99.90;;;;;;5036167;28;20885;-69
2022/03/21 01:51:32;;;;;;;55.60;50.40;;;7.50;99.90;;;;;;5033781;28;20463;-68
2022/03/21 01:56:47;;;;;;;54.20;49.00;;;7.50;99.90;;;;;;5039217;28;20466;-68
2022/03/21 01:59:15;;;;;;;54.87;49.40;;;7.40;99.90;;;;;;5038460;28;20471;-68
2022/03/21 02:01:44;;;;;;;53.67;48.57;;;7.40;99.90;;;;;;5036713;28;21158;-68
2022/03/21 02:04:11;;;;;;;68.57;51.20;;;7.40;99.90;;;;;;5038669;28;20475;-67
2022/03/21 02:06:39;;;;;;;56.63;50.83;;;7.30;99.90;;;;;;5036742;28;20463;-68
2022/03/21 02:09:07;;;;;;;57.60;51.80;;;7.20;99.90;;;;;;5041598;28;20466;-68
2022/03/21 02:11:35;;;;;;;56.83;51.33;;;7.10;99.90;;;;;;5034061;28;21397;-68
2022/03/21 02:14:03;;;;;;;57.87;52.27;;;7.00;99.90;;;;;;5033877;28;20471;-67
2022/03/21 02:16:31;;;;;;;57.70;52.47;;;6.90;99.90;;;;;;5037387;28;20540;-67
2022/03/21 02:19:02;;;;;;;58.40;52.30;;;6.80;99.90;;;;;;5042619;28;20535;-69
2022/03/21 02:24:30;;;;;;;56.40;51.13;;;6.60;99.90;;;;;;5037495;28;20487;-68
2022/03/21 02:27:01;;;;;;;60.63;54.30;;;6.50;99.90;;;;;;5035833;28;20464;-68
2022/03/21 02:29:29;;;;;;;58.43;52.97;;;6.50;99.90;;;;;;5030804;28;20876;-68
2022/03/21 02:31:56;;;;;;;57.70;52.40;;;6.40;99.90;;;;;;5036149;28;20737;-69
2022/03/21 02:34:25;;;;;;;56.53;51.00;;;6.40;99.90;;;;;;5039173;28;20493;-67
2022/03/21 02:36:56;;;;;;;59.00;53.10;;;6.40;99.90;;;;;;5037778;28;20472;-69
2022/03/21 02:39:23;;;;;;;56.97;51.60;;;6.30;99.90;;;;;;5038295;28;20467;-69
2022/03/21 02:41:50;;;;;;;56.47;50.83;;;6.30;99.90;;;;;;5034734;28;20833;-68
2022/03/21 02:44:19;;;;;;;57.07;51.60;;;6.40;99.90;;;;;;5038514;28;20997;-68
2022/03/21 02:46:46;;;;;;;56.23;51.17;;;6.30;99.90;;;;;;5041356;28;20576;-68
2022/03/21 02:49:15;;;;;;;56.93;51.43;;;6.40;99.90;;;;;;5035515;28;20878;-68
2022/03/21 02:51:44;;;;;;;57.20;52.00;;;6.40;99.90;;;;;;5041192;28;20468;-69
2022/03/21 02:54:13;;;;;;;58.80;51.33;;;6.40;99.90;;;;;;5039278;28;20495;-67
2022/03/21 02:56:40;;;;;;;59.80;53.20;;;6.40;99.90;;;;;;5033277;28;20465;-68
2022/03/21 02:59:07;;;;;;;56.67;51.63;;;6.40;99.90;;;;;;5036922;28;20477;-68
2022/03/21 03:01:36;;;;;;;57.33;52.00;;;6.50;99.90;;;;;;5036492;28;20487;-68
2022/03/21 03:04:03;;;;;;;58.50;52.10;;;6.50;99.90;;;;;;5034577;28;20518;-68
2022/03/21 03:06:30;;;;;;;58.63;52.97;;;6.50;99.90;;;;;;5038483;28;20962;-68
2022/03/21 03:08:57;;;;;;;55.63;50.50;;;6.50;99.90;;;;;;5038742;28;20460;-68
2022/03/21 03:11:24;;;;;;;59.10;53.27;;;6.50;99.90;;;;;;5039299;28;20467;-70
2022/03/21 03:13:51;;;;;;;56.77;51.67;;;6.50;99.90;;;;;;5035593;28;20471;-68
2022/03/21 03:16:18;;;;;;;54.83;49.90;;;6.50;99.90;;;;;;5042289;28;20487;-68
2022/03/21 03:18:47;;;;;;;58.03;51.83;;;6.50;99.90;;;;;;5036560;28;20476;-69
2022/03/21 03:21:19;;;;;;;61.63;55.47;;;6.50;99.90;;;;;;5035119;28;20459;-69
2022/03/21 03:23:49;;;;;;;60.17;54.03;;;6.50;99.90;;;;;;5035921;28;20496;-69
2022/03/21 03:26:16;;;;;;;57.77;52.17;;;6.50;99.90;;;;;;5038140;28;20464;-68
2022/03/21 03:28:43;;;;;;;58.73;53.10;;;6.40;99.90;;;;;;5037784;28;20467;-69
2022/03/21 03:31:11;;;;;;;56.80;51.30;;;6.30;99.90;;;;;;5036652;28;20498;-68
2022/03/21 03:33:39;;;;;;;56.83;51.50;;;6.20;99.90;;;;;;5035897;28;20489;-68
2022/03/21 03:36:08;;;;;;;57.70;52.20;;;6.00;99.90;;;;;;5036212;28;20608;-68
2022/03/21 03:38:35;;;;;;;59.60;53.30;;;5.80;99.90;;;;;;5037517;28;20467;-68
2022/03/21 03:41:02;;;;;;;59.57;54.27;;;5.70;99.90;;;;;;5033748;28;21022;-68
2022/03/21 03:43:29;;;;;;;68.47;53.60;;;5.60;99.90;;;;;;5037984;28;20492;-68
2022/03/21 03:45:57;;;;;;;62.43;56.17;;;5.50;99.90;;;;;;5039448;28;20459;-68
2022/03/21 03:48:25;;;;;;;56.87;51.50;;;5.40;99.90;;;;;;5038770;28;22546;-67
2022/03/21 03:50:51;;;;;;;57.33;51.83;;;5.30;99.90;;;;;;5038825;28;20463;-68
2022/03/21 03:53:20;;;;;;;58.17;52.50;;;5.20;99.90;;;;;;5039807;28;20471;-67
2022/03/21 03:55:47;;;;;;;56.47;51.07;;;5.20;99.90;;;;;;5037197;28;20462;-67
2022/03/21 03:58:14;;;;;;;56.13;51.00;;;5.10;99.90;;;;;;5034121;28;20473;-69
2022/03/21 04:00:41;;;;;;;53.27;48.27;;;5.00;99.90;;;;;;5041369;28;20463;-69
2022/03/21 04:05:53;;;;;;;55.17;49.23;;;4.90;99.90;;;;;;5038308;28;20538;-68
2022/03/21 04:08:21;;;;;;;56.90;51.10;;;4.80;99.90;;;;;;5038131;28;20594;-68
2022/03/21 04:10:48;;;;;;;57.57;51.67;;;4.70;99.90;;;;;;5037708;28;20460;-67
2022/03/21 04:13:15;;;;;;;58.67;52.87;;;4.60;99.90;;;;;;5039511;28;21166;-68
2022/03/21 04:15:42;;;;;;;55.13;50.03;;;4.60;99.90;;;;;;5038168;28;20471;-68
2022/03/21 04:18:09;;;;;;;57.40;51.30;;;4.50;99.90;;;;;;5037177;28;20470;-67
2022/03/21 04:20:37;;;;;;;55.60;50.80;;;4.50;99.90;;;;;;5039292;28;20481;-67
2022/03/21 04:23:04;;;;;;;55.47;50.03;;;4.50;99.90;;;;;;5034740;28;20495;-69
2022/03/21 04:25:32;;;;;;;56.80;51.20;;;4.60;99.90;;;;;;5038079;28;20475;-69
2022/03/21 04:28:00;;;;;;;54.93;49.10;;;4.60;99.90;;;;;;5039635;28;20476;-68
2022/03/21 04:30:28;;;;;;;58.50;52.40;;;4.70;99.90;;;;;;5036341;28;20460;-68
2022/03/21 04:32:54;;;;;;;55.83;50.03;;;4.70;99.90;;;;;;5034477;28;20488;-68
2022/03/21 04:35:22;;;;;;;55.63;50.30;;;4.70;99.90;;;;;;5042696;28;20539;-67
2022/03/21 04:37:49;;;;;;;63.50;50.80;;;4.70;99.90;;;;;;5040534;28;21037;-68
2022/03/21 04:40:16;;;;;;;53.70;48.40;;;4.70;99.90;;;;;;5036171;28;20470;-69
2022/03/21 04:42:44;;;;;;;57.43;51.30;;;4.70;99.90;;;;;;5032063;28;20571;-69
2022/03/21 04:45:11;;;;;;;62.77;52.70;;;4.80;99.90;;;;;;5040272;28;20506;-68
2022/03/21 04:47:39;;;;;;;55.87;50.23;;;4.80;99.90;;;;;;5040798;28;20468;-69
2022/03/21 04:50:08;;;;;;;58.97;52.90;;;4.80;99.90;;;;;;5040214;28;20547;-69
2022/03/21 04:52:35;;;;;;;54.13;48.93;;;4.70;99.90;;;;;;5036625;28;20460;-70
2022/03/21 04:55:02;;;;;;;58.60;52.90;;;4.60;99.90;;;;;;5037820;28;20859;-70
2022/03/21 04:57:29;;;;;;;54.70;49.23;;;4.50;99.90;;;;;;5035783;28;20496;-69
2022/03/21 04:59:57;;;;;;;58.40;52.60;;;4.40;99.90;;;;;;5038658;28;20476;-69
2022/03/21 05:02:24;;;;;;;54.70;49.33;;;4.30;99.90;;;;;;5023964;28;20474;-69
2022/03/21 05:04:51;;;;;;;57.77;52.00;;;4.10;99.90;;;;;;5005966;28;20558;-69
2022/03/21 05:07:19;;;;;;;56.27;50.23;;;4.00;99.90;;;;;;5008615;28;20563;-69
2022/03/21 05:09:47;;;;;;;57.57;51.43;;;3.90;99.90;;;;;;5006719;28;20469;-69
2022/03/21 05:12:15;;;;;;;56.23;50.03;;;3.80;99.90;;;;;;5007025;28;20687;-70
2022/03/21 05:14:42;;;;;;;57.90;50.50;;;3.80;99.90;;;;;;5002463;28;20476;-70
2022/03/21 05:17:12;;;;;;;56.03;50.53;;;3.70;99.90;;;;;;5006254;28;20461;-69
2022/03/21 05:19:40;;;;;;;54.07;49.17;;;3.70;99.90;;;;;;5005638;28;20858;-70
2022/03/21 05:22:07;;;;;;;57.10;51.20;;;3.60;99.90;;;;;;5006371;28;20621;-68
2022/03/21 05:35:52;;;;;;;55.73;49.73;;;3.60;99.90;;;;;;5005976;28;20523;-69
2022/03/21 05:35:56;;;;;;;57.40;50.83;;;3.50;99.90;;;;;;5006591;28;20829;-69
2022/03/21 05:38:24;;;;;;;55.63;50.50;;;3.40;99.90;;;;;;5007055;28;20970;-70
2022/03/21 05:40:52;;;;;;;59.87;53.27;;;3.30;99.90;;;;;;5007154;28;20469;-70
2022/03/21 05:43:19;;;;;;;57.30;51.40;;;3.40;99.90;;;;;;5006833;28;20492;-69
2022/03/21 05:45:49;;;;;;;57.63;52.00;;;3.40;99.90;;;;;;5005156;28;20479;-69
2022/03/21 05:51:03;;;;;;;58.40;53.03;;;3.30;99.90;;;;;;5014478;28;20471;-68
2022/03/21 05:53:30;;;;;;;57.40;51.20;;;3.30;99.90;;;;;;5038362;28;20460;-69
2022/03/21 05:56:00;;;;;;;57.80;52.00;;;3.20;99.90;;;;;;5031046;28;20465;-70
2022/03/21 05:58:27;;;;;;;61.43;55.00;;;3.20;99.90;;;;;;5006077;28;20867;-69
2022/03/21 06:00:54;;;;;;;59.57;54.00;;;3.30;99.90;;;;;;5005665;28;20464;-69
2022/03/21 06:03:24;;;;;;;58.87;52.80;;;3.30;99.90;;;;;;5005693;28;20488;-69
2022/03/21 06:05:51;;;;;;;58.60;52.87;;;3.30;99.90;;;;;;5002885;28;20464;-69
2022/03/21 06:08:20;;;;;;;58.60;52.77;;;3.30;99.90;;;;;;5003104;28;20481;-69
2022/03/21 06:10:47;;;;;;;58.47;52.30;;;3.30;99.90;;;;;;5003572;28;20477;-69
2022/03/21 06:13:15;;;;;;;59.67;53.77;;;3.30;99.90;;;;;;5004978;28;20473;-69
2022/03/21 06:15:45;;;;;;;59.77;53.37;;;3.30;99.90;;;;;;5003907;28;20821;-69
2022/03/21 06:18:12;;;;;;;60.17;54.17;;;3.40;99.90;;;;;;5006061;28;20470;-69
2022/03/21 06:20:43;;;;;;;59.10;52.10;;;3.40;99.90;;;;;;5004491;28;20903;-69
2022/03/21 06:23:09;;;;;;;59.07;52.60;;;3.50;99.90;;;;;;5004029;28;20493;-69
2022/03/21 06:25:37;;;;;;;58.27;52.37;;;3.60;99.90;;;;;;5003989;28;20461;-69
2022/03/21 06:28:05;;;;;;;61.50;55.10;;;3.70;99.90;;;;;;5006810;28;20738;-69
2022/03/21 06:30:31;;;;;;;58.87;52.57;;;3.70;99.90;;;;;;5004535;28;20464;-68
2022/03/21 06:32:58;;;;;;;58.93;52.67;;;3.80;99.90;;;;;;5006343;28;20842;-69
2022/03/21 06:35:25;;;;;;;61.60;53.17;;;3.80;99.90;;;;;;5005056;28;20463;-69
2022/03/21 06:37:53;;;;;;;54.93;49.20;;;3.90;99.90;;;;;;5004571;28;20806;-69
2022/03/21 06:40:20;;;;;;;58.87;51.37;;;4.00;99.90;;;;;;5005509;28;20470;-68
2022/03/21 06:42:47;;;;;;;64.53;52.80;;;4.00;99.90;;;;;;5006153;28;20930;-69
2022/03/21 06:45:14;;;;;;;61.13;54.40;;;4.10;99.90;;;;;;5004277;28;20489;-69
2022/03/21 06:47:42;;;;;;;63.07;53.93;;;4.20;99.90;;;;;;5006388;28;20612;-69
2022/03/21 06:50:10;;;;;;;62.40;55.90;;;4.30;99.90;;;;;;5028122;28;20475;-69
2022/03/21 06:52:39;;;;;;;56.33;50.57;;;4.40;99.90;;;;;;5019713;28;20463;-69
2022/03/21 06:55:10;;;;;;;58.00;51.60;;;4.50;99.90;;;;;;5003288;28;20556;-69
2022/03/21 06:57:37;;;;;;;56.63;50.87;;;4.50;99.90;;;;;;5003414;28;20471;-69
2022/03/21 07:00:05;;;;;;;59.80;53.10;;;4.60;99.90;;;;;;5003215;28;20454;-69
2022/03/21 07:02:32;;;;;;;60.77;54.33;;;4.70;99.90;;;;;;5007887;28;20477;-69
2022/03/21 07:04:59;;;;;;;65.20;53.40;;;4.90;99.90;;;;;;5006893;28;20512;-69
2022/03/21 07:07:25;;;;;;;67.37;56.00;;;5.10;99.90;;;;;;5005490;28;20472;-70
2022/03/21 07:09:52;;;;;;;59.53;53.10;;;5.20;99.90;;;;;;5006585;28;20458;-69
2022/03/21 07:12:21;;;;;;;60.07;53.70;;;5.30;99.90;;;;;;5009462;28;20468;-69
2022/03/21 07:14:48;;;;;;;63.97;55.00;;;5.50;99.90;;;;;;5005328;28;20475;-68
2022/03/21 07:17:19;;;;;;;61.30;54.03;;;5.70;99.90;;;;;;5007735;28;20472;-68
2022/03/21 07:19:46;;;;;;;63.63;55.10;;;5.90;99.90;;;;;;5007857;28;20500;-68
2022/03/21 07:22:13;;;;;;;70.70;56.50;;;6.00;99.90;;;;;;5007700;28;20460;-68
2022/03/21 07:24:40;;;;;;;68.13;57.40;;;6.20;99.90;;;;;;5007569;28;21127;-68
2022/03/21 07:27:07;;;;;;;66.57;54.97;;;6.40;99.90;;;;;;5002540;28;20854;-68
2022/03/21 07:29:35;;;;;;;63.87;56.87;;;6.60;99.90;;;;;;5006015;28;20471;-68
2022/03/21 07:32:02;;;;;;;71.63;58.60;;;6.80;99.90;;;;;;5005798;28;20578;-69
2022/03/21 07:34:29;;;;;;;78.93;57.57;;;6.90;99.90;;;;;;5004325;28;21506;-69
2022/03/21 07:36:56;;;;;;;66.30;57.23;;;7.00;99.90;;;;;;5006325;28;20937;-69
2022/03/21 07:39:23;;;;;;;72.17;60.67;;;7.10;99.90;;;;;;5006010;28;20474;-69
2022/03/21 07:41:51;;;;;;;68.30;59.80;;;7.30;99.90;;;;;;5006322;28;20464;-68
2022/03/21 07:47:20;;;;;;;71.23;60.87;;;7.40;99.90;;;;;;5004165;28;20452;-68
2022/03/21 07:49:48;;;;;;;70.10;58.70;;;7.60;99.90;;;;;;5006601;28;20453;-68
2022/03/21 07:52:18;;;;;;;84.47;58.50;;;7.60;99.90;;;;;;5007101;28;20562;-67
2022/03/21 07:54:46;;;;;;;73.00;62.17;;;7.70;99.90;;;;;;5007469;28;21116;-68
2022/03/21 07:57:12;;;;;;;71.53;58.73;;;7.80;99.90;;;;;;5007608;28;20950;-68
2022/03/21 07:59:39;;;;;;;73.93;57.27;;;7.90;99.90;;;;;;5007720;28;20456;-69
2022/03/21 08:02:08;;;;;;;71.83;56.53;;;8.10;99.90;;;;;;5008189;28;20854;-68
2022/03/21 08:04:50;;;;;;;75.80;58.60;;;8.20;99.90;;;;;;5007380;28;20990;-69
2022/03/21 08:07:17;;;;;;;79.13;58.20;;;8.30;99.90;;;;;;5007256;28;20484;-69
2022/03/21 08:09:43;;;;;;;73.67;57.90;;;8.40;99.90;;;;;;5007450;28;21038;-69
2022/03/21 08:12:11;;;;;;;82.60;56.07;;;8.40;99.90;;;;;;5006900;28;20463;-69
2022/03/21 08:14:38;;;;;;;69.80;54.50;;;8.50;99.90;;;;;;5006815;28;20697;-69
2022/03/21 08:17:06;;;;;;;76.80;53.63;;;8.60;99.90;;;;;;5007949;28;21197;-69
2022/03/21 08:19:35;;;;;;;69.53;55.00;;;8.70;99.90;;;;;;5007362;28;20575;-69
2022/03/21 08:22:04;;;;;;;72.90;51.53;;;8.90;99.90;;;;;;5007263;28;20796;-69
2022/03/21 08:24:33;;;;;;;69.70;52.47;;;8.90;99.90;;;;;;5006497;28;20588;-68
2022/03/21 08:27:00;;;;;;;87.40;52.53;;;9.00;99.90;;;;;;5004180;28;21013;-68
2022/03/21 08:29:27;;;;;;;83.17;52.37;;;9.10;99.90;;;;;;5005878;28;20481;-69
2022/03/21 08:31:54;;;;;;;66.67;51.10;;;9.20;99.90;;;;;;5006471;28;20464;-69
2022/03/21 08:34:20;;;;;;;72.90;49.90;;;9.30;99.90;;;;;;5007326;28;20488;-69
2022/03/21 08:36:49;;;;;;;64.50;49.30;;;9.50;99.90;;;;;;5006826;28;20978;-69
2022/03/21 08:39:16;;;;;;;70.63;48.73;;;9.70;99.90;;;;;;5004870;28;20468;-69
2022/03/21 08:41:43;;;;;;;63.70;48.97;;;9.70;99.90;;;;;;5005990;28;20461;-68
2022/03/21 08:44:10;;;;;;;74.53;49.83;;;9.80;99.90;;;;;;5005921;28;20519;-67
2022/03/21 08:46:36;;;;;;;68.40;48.23;;;9.90;99.90;;;;;;5006418;28;20468;-69
2022/03/21 08:51:49;;;;;;;60.90;47.60;;;10.00;99.90;;;;;;5006803;28;20538;-67
2022/03/21 08:54:16;;;;;;;61.50;45.50;;;10.10;99.90;;;;;;5006170;28;20465;-70
2022/03/21 08:56:43;;;;;;;66.97;47.33;;;10.30;99.90;;;;;;5006985;28;20483;-68
2022/03/21 08:59:11;;;;;;;59.33;47.53;;;10.50;99.90;;;;;;5007711;28;20475;-68
2022/03/21 09:01:38;;;;;;;54.60;44.33;;;10.60;99.90;;;;;;5006776;28;21073;-68
2022/03/21 09:04:05;;;;;;;65.37;46.00;;;10.80;99.90;;;;;;5006968;28;20498;-68
2022/03/21 09:06:31;;;;;;;58.33;44.63;;;11.00;99.90;;;;;;5006801;28;20453;-70
2022/03/21 09:08:59;;;;;;;56.30;43.30;;;11.00;99.90;;;;;;5005398;28;20472;-67
2022/03/21 09:11:27;;;;;;;50.27;43.30;;;11.10;99.90;;;;;;5006555;28;20593;-68
2022/03/21 09:13:54;;;;;;;55.83;43.43;;;11.40;99.90;;;;;;5005120;28;20460;-68
2022/03/21 09:16:21;;;;;;;51.80;41.80;;;11.60;99.90;;;;;;5007063;28;20938;-70
2022/03/21 09:18:48;;;;;;;59.77;42.07;;;11.70;99.90;;;;;;5004981;28;20483;-68
2022/03/21 09:21:14;;;;;;;60.50;40.10;;;11.70;99.90;;;;;;5006652;28;20477;-68
2022/03/21 09:23:41;;;;;;;53.40;41.57;;;11.70;99.90;;;;;;5014024;28;20460;-68
2022/03/21 09:26:10;;;;;;;50.23;40.50;;;12.00;99.90;;;;;;5036028;28;20826;-69
2022/03/21 09:28:37;;;;;;;46.03;39.00;;;12.10;99.90;;;;;;5035133;28;20553;-68
2022/03/21 09:31:06;;;;;;;43.83;39.03;;;12.30;99.90;;;;;;5018066;28;20463;-68
2022/03/21 09:33:33;;;;;;;43.90;39.50;;;12.60;99.90;;;;;;5006251;28;20917;-68
2022/03/21 09:36:00;;;;;;;42.10;36.80;;;12.60;99.90;;;;;;5006371;28;20490;-68
2022/03/21 09:38:27;;;;;;;46.20;39.33;;;12.60;99.90;;;;;;5004499;28;21280;-68
2022/03/21 09:40:54;;;;;;;43.90;39.03;;;12.60;99.90;;;;;;5005383;28;20953;-68
2022/03/21 09:43:24;;;;;;;45.20;36.67;;;13.00;99.90;;;;;;5006513;28;20494;-68
2022/03/21 09:45:52;;;;;;;43.07;34.90;;;13.40;99.90;;;;;;5005545;28;20539;-68
2022/03/21 09:48:20;;;;;;;36.67;32.90;;;14.20;99.90;;;;;;5004261;28;20547;-69
2022/03/21 09:50:50;;;;;;;34.63;31.20;;;14.90;99.90;;;;;;5006005;28;20461;-68
2022/03/21 09:53:18;;;;;;;38.20;34.10;;;15.10;99.90;;;;;;5006248;28;21032;-69
2022/03/21 09:55:45;;;;;;;35.33;31.73;;;15.40;99.90;;;;;;5005070;28;20469;-69
2022/03/21 09:58:12;;;;;;;35.13;31.63;;;15.90;99.90;;;;;;5005710;28;20476;-69
2022/03/21 10:00:42;;;;;;;41.77;34.23;;;16.30;99.90;;;;;;5007099;28;20476;-68
2022/03/21 10:03:10;;;;;;;36.87;32.93;;;16.60;99.90;;;;;;5005555;28;20457;-70
2022/03/21 10:05:39;;;;;;;39.83;32.50;;;17.10;99.90;;;;;;5005496;28;21265;-69
2022/03/21 10:08:19;;;;;;;34.43;31.30;;;16.80;99.90;;;;;;5006785;28;20464;-68
2022/03/21 10:10:53;;;;;;;35.13;31.10;;;17.10;99.90;;;;;;5006030;28;20471;-69
2022/03/21 10:13:21;;;;;;;35.13;31.90;;;17.70;99.90;;;;;;5006462;28;20464;-69
2022/03/21 10:15:50;;;;;;;34.43;31.33;;;17.90;99.90;;;;;;5005914;28;20471;-70
2022/03/21 10:18:18;;;;;;;35.43;32.00;;;18.10;99.90;;;;;;5006020;28;20460;-69
2022/03/21 10:20:45;;;;;;;35.20;31.70;;;17.70;99.90;;;;;;5005850;28;20480;-69
2022/03/21 10:23:17;;;;;;;35.30;31.60;;;17.80;99.90;;;;;;5005707;28;20475;-69
2022/03/21 10:25:44;;;;;;;33.90;30.77;;;18.20;99.90;;;;;;5004522;28;21086;-69
2022/03/21 10:28:11;;;;;;;33.83;30.30;;;18.00;99.90;;;;;;5006982;28;20486;-69
2022/03/21 10:30:44;;;;;;;38.10;31.17;;;17.60;99.90;;;;;;5005115;28;20464;-68
2022/03/21 10:33:12;;;;;;;34.67;31.37;;;17.70;99.90;;;;;;5004598;28;20468;-71
2022/03/21 10:35:46;;;;;;;34.03;30.63;;;17.80;99.90;;;;;;5024384;28;21177;-68
2022/03/21 10:38:13;;;;;;;36.13;30.83;;;18.30;99.90;;;;;;5034116;28;20463;-68
2022/03/21 10:40:45;;;;;;;36.10;32.60;;;19.00;99.90;;;;;;5038691;28;20486;-68
2022/03/21 10:43:13;;;;;;;34.63;31.23;;;19.60;99.90;;;;;;5014261;28;20460;-70
2022/03/21 10:45:45;;;;;;;32.70;29.13;;;20.50;99.90;;;;;;5009600;28;20867;-69
2022/03/21 10:48:15;;;;;;;32.77;29.87;;;20.30;99.90;;;;;;5008958;28;20610;-70
2022/03/21 10:50:45;;;;;;;32.70;29.23;;;21.00;99.90;;;;;;5009209;28;20969;-68
2022/03/21 10:53:14;;;;;;;34.50;30.77;;;21.20;99.90;;;;;;5009644;28;20979;-67
2022/03/21 10:55:43;;;;;;;31.23;28.53;;;21.90;99.90;;;;;;5009082;28;20897;-70
2022/03/21 10:58:11;;;;;;;33.47;29.90;;;22.00;99.90;;;;;;5010075;28;20459;-68
2022/03/21 11:00:38;;;;;;;33.17;30.10;;;22.30;99.90;;;;;;5009255;28;21033;-68
2022/03/21 11:03:09;;;;;;;33.97;30.60;;;22.50;99.70;;;;;;5009335;28;20461;-69
2022/03/21 11:05:39;;;;;;;32.87;29.77;;;22.60;99.80;;;;;;5009480;28;20891;-68
2022/03/21 11:08:07;;;;;;;33.73;30.27;;;22.40;98.70;;;;;;5007971;28;20504;-68
2022/03/21 11:10:35;;;;;;;35.93;31.53;;;22.40;99.40;;;;;;5009342;28;20851;-69
2022/03/21 11:13:04;;;;;;;34.07;30.57;;;22.90;98.00;;;;;;5008717;28;20461;-69
2022/03/21 11:15:32;;;;;;;33.23;30.33;;;22.70;98.70;;;;;;5008945;28;20467;-70
2022/03/21 11:17:59;;;;;;;33.67;30.53;;;22.60;98.60;;;;;;5009214;28;20807;-69
2022/03/21 11:20:28;;;;;;;33.23;30.27;;;22.60;97.30;;;;;;5008582;28;20646;-69
2022/03/21 11:22:57;;;;;;;32.70;29.70;;;22.90;97.20;;;;;;5008989;28;20527;-70
2022/03/21 11:25:25;;;;;;;32.53;29.60;;;23.40;97.20;;;;;;5008755;28;21049;-69
2022/03/21 11:28:32;;;;;;;33.40;30.00;;;23.90;96.90;;;;;;5008633;28;20478;-71
2022/03/21 11:31:18;;;;;;;31.90;28.47;;;23.80;95.00;;;;;;5008420;28;20464;-70
2022/03/21 11:33:50;;;;;;;30.33;27.57;;;23.90;95.70;;;;;;5004234;28;20504;-70
2022/03/21 11:36:17;;;;;;;32.87;29.77;;;24.70;94.40;;;;;;5006333;28;20770;-70
2022/03/21 11:38:47;;;;;;;32.30;29.30;;;25.40;93.70;;;;;;5005203;28;20464;-69
2022/03/21 11:41:16;;;;;;;35.10;30.53;;;26.00;91.70;;;;;;5005165;28;20600;-70
2022/03/21 11:43:44;;;;;;;32.07;29.00;;;25.70;89.40;;;;;;5006535;28;20487;-69
2022/03/21 11:46:22;;;;;;;30.77;27.87;;;25.20;90.00;;;;;;5005549;28;21181;-71
2022/03/21 11:48:49;;;;;;;30.63;28.07;;;25.50;88.40;;;;;;5004928;28;20582;-69
2022/03/21 11:51:35;;;;;;;33.90;30.47;;;25.90;88.70;;;;;;5007170;28;20479;-70
2022/03/21 11:54:04;;;;;;;32.40;29.23;;;25.50;87.30;;;;;;5006161;28;20817;-71
2022/03/21 11:57:08;;;;;;;31.37;28.50;;;25.60;85.40;;;;;;5006797;28;20488;-69
2022/03/21 12:00:17;;;;;;;29.37;26.87;;;25.70;82.10;;;;;;5007370;28;20461;-69
2022/03/21 12:02:59;;;;;;;32.13;29.50;;;25.30;87.50;;;;;;4932795;28;20590;-69
2022/03/21 12:05:50;;;;;;;28.43;26.23;;;26.20;86.20;;;;;;4932620;28;20468;-69
2022/03/21 12:08:34;;;;;;;29.57;27.00;;;26.60;82.40;;;;;;4989689;28;21072;-68
2022/03/21 12:11:03;;;;;;;28.43;26.03;;;26.10;81.10;;;;;;5007183;28;20488;-70
2022/03/21 12:13:48;;;;;;;28.67;26.27;;;26.40;82.10;;;;;;5007222;28;20537;-70
2022/03/21 12:16:21;;;;;;;30.03;27.67;;;26.40;80.30;;;;;;5006240;28;20496;-69
2022/03/21 12:19:16;;;;;;;28.10;25.60;;;26.40;79.60;;;;;;5006860;28;21092;-68
2022/03/21 12:21:44;;;;;;;27.03;24.77;;;26.40;79.40;;;;;;5007742;28;20465;-69
2022/03/21 12:24:16;;;;;;;27.50;25.00;;;26.70;80.20;;;;;;5006950;28;20457;-69
2022/03/21 12:26:53;;;;;;;28.43;26.03;;;27.10;78.40;;;;;;5006921;28;20456;-69
2022/03/21 12:29:33;;;;;;;27.30;24.90;;;27.40;76.40;;;;;;5006719;28;20542;-69
2022/03/21 12:32:26;;;;;;;29.03;26.30;;;27.00;76.70;;;;;;5007545;28;20785;-69
2022/03/21 12:34:55;;;;;;;28.43;25.83;;;27.20;75.20;;;;;;5006376;28;20507;-69
2022/03/21 12:37:41;;;;;;;29.93;27.23;;;26.90;74.80;;;;;;5005996;28;20859;-70
2022/03/21 12:40:13;;;;;;;29.03;26.20;;;27.50;71.20;;;;;;5007095;28;21162;-69
2022/03/21 12:42:46;;;;;;;29.40;26.87;;;27.30;68.40;;;;;;5005676;28;20758;-70
2022/03/21 12:45:20;;;;;;;28.90;26.20;;;27.20;69.50;;;;;;5006492;28;20465;-70
2022/03/21 12:47:48;;;;;;;28.57;26.27;;;26.50;70.60;;;;;;5007409;28;20468;-70
2022/03/21 12:50:23;;;;;;;29.27;26.77;;;26.60;72.30;;;;;;5006263;28;20480;-71
2022/03/21 12:52:54;;;;;;;29.07;25.77;;;27.40;69.70;;;;;;5005409;28;20965;-69
2022/03/21 12:55:21;;;;;;;27.60;25.33;;;27.00;67.10;;;;;;5001795;28;21135;-70
2022/03/21 12:57:58;;;;;;;29.37;26.57;;;27.10;70.50;;;;;;5006201;28;20456;-70
2022/03/21 13:00:27;;;;;;;28.53;26.23;;;26.70;67.40;;;;;;5004060;28;20977;-71
2022/03/21 13:02:56;;;;;;;27.53;25.17;;;26.50;68.50;;;;;;5007165;28;20469;-70
2022/03/21 13:10:54;;;;;;;27.70;24.87;;;27.20;66.70;;;;;;5029307;28;20507;-69
2022/03/21 13:13:22;;;;;;;28.10;25.50;;;27.60;64.60;;;;;;5020072;28;20803;-70